createdAt,value
2022-08-05T00:00:12.873Z,100878.13
2022-08-05T00:02:43.852Z,100876.16
2022-08-05T00:06:02.985Z,100884.22
2022-08-05T00:08:35.217Z,100876.19
2022-08-05T00:11:48.781Z,100877.59
2022-08-05T00:14:36.438Z,100878.88
2022-08-05T00:17:03.664Z,100878.13
2022-08-05T00:20:01.982Z,100877.28
2022-08-05T00:22:29.995Z,100870.09
2022-08-05T00:25:17.976Z,100879.00
2022-08-05T00:28:05.646Z,100869.09
2022-08-05T00:30:32.434Z,100871.13
2022-08-05T00:32:59.653Z,100871.53
2022-08-05T00:35:33.296Z,100868.91
2022-08-05T00:38:00.453Z,100873.16
2022-08-05T00:40:29.771Z,100865.47
2022-08-05T00:43:17.124Z,100862.97
2022-08-05T00:46:18.029Z,100858.00
2022-08-05T00:49:20.108Z,100863.44
2022-08-05T00:51:50.639Z,100854.88
2022-08-05T00:54:18.995Z,100860.22
2022-08-05T00:56:51.494Z,100847.31
2022-08-05T00:59:18.870Z,100855.59
2022-08-05T01:01:48.987Z,100856.50
2022-08-05T01:04:16.194Z,100850.78
2022-08-05T01:06:48.689Z,100849.25
2022-08-05T01:09:36.045Z,100852.63
2022-08-05T01:12:20.624Z,100850.91
2022-08-05T01:15:35.516Z,100844.38
2022-08-05T01:18:37.015Z,100845.94
2022-08-05T01:21:38.107Z,100839.75
2022-08-05T01:24:25.512Z,100842.31
2022-08-05T01:27:22.242Z,100837.25
2022-08-05T01:30:04.301Z,100841.75
2022-08-05T01:32:33.665Z,100842.91
2022-08-05T01:35:02.204Z,100839.63
2022-08-05T01:37:36.656Z,100836.13
2022-08-05T01:40:12.581Z,100837.97
2022-08-05T01:42:41.063Z,100831.88
2022-08-05T01:45:09.054Z,100838.06
2022-08-05T01:47:39.426Z,100840.75
2022-08-05T01:50:34.040Z,100849.16
2022-08-05T01:53:57.871Z,100845.88
2022-08-05T01:58:10.295Z,100841.69
2022-08-05T01:59:26.930Z,100846.53
2022-08-05T02:01:56.737Z,100848.81
2022-08-05T02:04:26.609Z,100848.06
2022-08-05T02:06:53.753Z,100850.78
2022-08-05T02:09:41.064Z,100857.81
2022-08-05T02:12:21.717Z,100853.06
2022-08-05T02:15:07.093Z,100853.34
2022-08-05T02:18:31.992Z,100854.28
2022-08-05T02:20:58.800Z,100859.13
2022-08-05T02:23:41.239Z,100864.88
2022-08-05T02:26:30.045Z,100862.69
2022-08-05T02:29:21.290Z,100866.69
2022-08-05T02:31:52.245Z,100857.63
2022-08-05T02:34:24.100Z,100857.03
2022-08-05T02:36:57.495Z,100854.97
2022-08-05T02:39:25.166Z,100845.03
2022-08-05T02:42:00.486Z,100854.41
2022-08-05T02:44:28.957Z,100852.50
2022-08-05T02:47:00.329Z,100852.09
2022-08-05T02:49:35.637Z,100838.72
2022-08-05T02:52:05.835Z,100850.84
2022-08-05T02:54:53.080Z,100845.03
2022-08-05T02:58:10.667Z,100855.75
2022-08-05T03:01:14.141Z,100850.31
2022-08-05T03:04:17.104Z,100850.81
2022-08-05T03:08:01.898Z,100855.50
2022-08-05T03:10:39.103Z,100852.13
2022-08-05T03:13:17.087Z,100846.22
2022-08-05T03:15:45.031Z,100844.94
2022-08-05T03:18:12.013Z,100836.75
2022-08-05T03:20:48.569Z,100837.69
2022-08-05T03:23:15.986Z,100840.41
2022-08-05T03:26:04.267Z,100841.16
2022-08-05T03:28:31.006Z,100840.97
2022-08-05T03:30:59.706Z,100837.81
2022-08-05T03:33:42.325Z,100834.22
2022-08-05T03:36:14.979Z,100830.81
2022-08-05T03:38:42.237Z,100835.09
2022-08-05T03:41:19.355Z,100834.84
2022-08-05T03:44:09.068Z,100846.63
2022-08-05T03:46:37.459Z,100840.97
2022-08-05T03:49:04.721Z,100835.69
2022-08-05T03:52:36.558Z,100836.00
2022-08-05T03:55:54.081Z,100832.66
2022-08-05T03:57:42.458Z,100831.59
2022-08-05T04:00:44.314Z,100830.50
2022-08-05T04:04:09.321Z,100835.06
2022-08-05T04:06:51.759Z,100834.56
2022-08-05T04:09:53.670Z,100831.88
2022-08-05T04:15:00.628Z,100828.06
2022-08-05T04:17:55.651Z,100833.28
2022-08-05T04:20:18.999Z,100845.53
2022-08-05T04:22:47.094Z,100847.59
2022-08-05T04:25:15.809Z,100849.47
2022-08-05T04:27:43.693Z,100848.53
2022-08-05T04:30:23.728Z,100857.53
2022-08-05T04:32:53.594Z,100858.84
2022-08-05T04:35:20.340Z,100862.41
2022-08-05T04:38:01.577Z,100863.28
2022-08-05T04:40:32.845Z,100859.13
2022-08-05T04:42:59.597Z,100858.44
2022-08-05T04:45:48.591Z,100856.94
2022-08-05T04:48:18.740Z,100863.25
2022-08-05T04:51:03.794Z,100866.34
2022-08-05T04:53:58.153Z,100866.56
2022-08-05T04:56:43.602Z,100853.34
2022-08-05T04:59:21.964Z,100854.81
2022-08-05T05:02:36.433Z,100860.56
2022-08-05T05:05:35.149Z,100851.00
2022-08-05T05:08:56.170Z,100852.44
2022-08-05T05:11:52.895Z,100855.00
2022-08-05T05:14:27.870Z,100858.69
2022-08-05T05:16:59.113Z,100862.28
2022-08-05T05:19:27.295Z,100866.69
2022-08-05T05:22:23.712Z,100873.59
2022-08-05T05:24:58.764Z,100873.00
2022-08-05T05:27:44.867Z,100878.06
2022-08-05T05:30:35.201Z,100880.44
2022-08-05T05:33:23.418Z,100867.84
2022-08-05T05:35:50.499Z,100871.47
2022-08-05T05:38:22.835Z,100867.06
2022-08-05T05:40:54.816Z,100866.03
2022-08-05T05:43:56.500Z,100869.56
2022-08-05T05:46:15.834Z,100868.84
2022-08-05T05:49:06.448Z,100870.94
2022-08-05T05:52:05.817Z,100865.50
2022-08-05T05:54:50.341Z,100877.56
2022-08-05T05:57:19.408Z,100867.53
2022-08-05T05:59:47.208Z,100870.25
2022-08-05T06:02:37.527Z,100878.66
2022-08-05T06:05:38.395Z,100886.66
2022-08-05T06:08:39.590Z,100883.53
2022-08-05T06:11:26.059Z,100880.44
2022-08-05T06:13:54.001Z,100883.66
2022-08-05T06:16:30.850Z,100889.44
2022-08-05T06:19:00.935Z,100889.88
2022-08-05T06:21:35.781Z,100885.16
2022-08-05T06:24:06.135Z,100885.44
2022-08-05T06:26:35.975Z,100883.31
2022-08-05T06:29:03.370Z,100880.53
2022-08-05T06:31:32.912Z,100883.44
2022-08-05T06:34:06.074Z,100885.41
2022-08-05T06:36:37.371Z,100885.03
2022-08-05T06:39:21.710Z,100884.19
2022-08-05T06:42:10.213Z,100890.19
2022-08-05T06:45:20.812Z,100890.84
2022-08-05T06:48:36.926Z,100887.50
2022-08-05T06:50:49.970Z,100894.16
2022-08-05T06:53:22.727Z,100896.44
2022-08-05T06:55:56.371Z,100890.16
2022-08-05T06:58:35.361Z,100891.22
2022-08-05T07:01:05.208Z,100888.50
2022-08-05T07:03:52.255Z,100898.78
2022-08-05T07:06:53.266Z,100897.16
2022-08-05T07:09:55.378Z,100899.81
2022-08-05T07:12:57.302Z,100894.81
2022-08-05T07:16:01.614Z,100897.63
2022-08-05T07:18:30.817Z,100891.03
2022-08-05T07:20:57.825Z,100901.34
2022-08-05T07:23:26.401Z,100896.00
2022-08-05T07:25:57.077Z,100900.22
2022-08-05T07:28:25.293Z,100896.72
2022-08-05T07:31:13.265Z,100899.13
2022-08-05T07:33:55.679Z,100892.56
2022-08-05T07:36:27.440Z,100891.34
2022-08-05T07:38:54.999Z,100899.38
2022-08-05T07:42:12.993Z,100898.19
2022-08-05T07:44:43.185Z,100901.03
2022-08-05T07:47:13.432Z,100895.41
2022-08-05T07:49:43.553Z,100897.53
2022-08-05T07:52:21.440Z,100893.16
2022-08-05T07:54:50.749Z,100892.03
2022-08-05T07:57:51.269Z,100886.25
2022-08-05T08:00:11.494Z,100897.09
2022-08-05T08:03:13.847Z,100895.78
2022-08-05T08:05:55.785Z,100902.75
2022-08-05T08:08:43.391Z,100890.25
2022-08-05T08:11:48.183Z,100888.97
2022-08-05T08:14:34.819Z,100884.78
2022-08-05T08:17:02.557Z,100891.06
2022-08-05T08:20:21.204Z,100884.91
2022-08-05T08:22:16.599Z,100890.25
2022-08-05T08:24:51.736Z,100880.88
2022-08-05T08:27:18.895Z,100881.41
2022-08-05T08:30:05.156Z,100877.78
2022-08-05T08:32:33.987Z,100885.41
2022-08-05T08:35:07.465Z,100886.47
2022-08-05T08:38:01.298Z,100890.13
2022-08-05T08:40:45.704Z,100879.56
2022-08-05T08:45:25.130Z,100879.34
2022-08-05T08:47:01.307Z,100883.84
2022-08-05T08:50:22.655Z,100882.91
2022-08-05T08:52:33.547Z,100883.69
2022-08-05T08:55:00.613Z,100876.44
2022-08-05T08:57:42.065Z,100881.56
2022-08-05T09:00:15.749Z,100880.19
2022-08-05T09:03:06.357Z,100878.50
2022-08-05T09:06:08.901Z,100873.47
2022-08-05T09:09:13.353Z,100882.28
2022-08-05T09:12:00.173Z,100872.88
2022-08-05T09:14:58.582Z,100871.16
2022-08-05T09:17:45.717Z,100879.75
2022-08-05T09:20:51.400Z,100878.78
2022-08-05T09:23:37.469Z,100875.91
2022-08-05T09:26:20.679Z,100872.34
2022-08-05T09:28:49.400Z,100866.88
2022-08-05T09:31:44.049Z,100870.50
2022-08-05T09:34:31.040Z,100873.00
2022-08-05T09:36:59.963Z,100872.00
2022-08-05T09:39:39.453Z,100858.59
2022-08-05T09:42:17.393Z,100853.03
2022-08-05T09:44:52.537Z,100855.81
2022-08-05T09:47:24.151Z,100851.19
2022-08-05T09:49:57.067Z,100843.03
2022-08-05T09:52:33.057Z,100847.88
2022-08-05T09:55:55.508Z,100839.94
2022-08-05T09:57:48.862Z,100834.81
2022-08-05T10:00:24.713Z,100838.66
2022-08-05T10:03:04.437Z,100834.84
2022-08-05T10:05:46.177Z,100825.50
2022-08-05T10:08:38.540Z,100835.91
2022-08-05T10:11:23.000Z,100832.44
2022-08-05T10:13:49.989Z,100780.41
2022-08-05T10:16:41.875Z,100825.47
2022-08-05T10:19:23.535Z,100819.41
2022-08-05T10:21:59.121Z,100810.56
2022-08-05T10:24:27.095Z,100808.81
2022-08-05T10:27:00.449Z,100811.22
2022-08-05T10:30:06.559Z,100809.69
2022-08-05T10:33:05.142Z,100810.66
2022-08-05T10:35:59.702Z,100799.09
2022-08-05T10:38:28.539Z,100806.09
2022-08-05T10:41:28.073Z,100799.94
2022-08-05T10:44:17.175Z,100795.63
2022-08-05T10:46:50.702Z,100795.63
2022-08-05T10:49:26.908Z,100784.72
2022-08-05T10:52:13.415Z,100798.22
2022-08-05T10:55:05.272Z,100795.41
2022-08-05T10:57:34.216Z,100788.22
2022-08-05T11:00:12.193Z,100784.06
2022-08-05T11:03:25.979Z,100794.56
2022-08-05T11:06:14.968Z,100780.19
2022-08-05T11:09:31.896Z,100780.59
2022-08-05T11:12:33.348Z,100773.16
2022-08-05T11:15:20.001Z,100783.09
2022-08-05T11:18:11.615Z,100775.72
2022-08-05T11:20:52.581Z,100781.16
2022-08-05T11:24:05.093Z,100783.00
2022-08-05T11:26:43.403Z,100775.00
2022-08-05T11:29:53.423Z,100776.31
2022-08-05T11:32:54.432Z,100767.56
2022-08-05T11:36:02.878Z,100767.16
2022-08-05T11:38:45.708Z,100767.56
2022-08-05T11:41:57.989Z,100754.59
2022-08-05T11:44:12.680Z,100753.81
2022-08-05T11:47:11.797Z,100745.44
2022-08-05T11:49:43.235Z,100735.97
2022-08-05T11:52:23.508Z,100745.38
2022-08-05T11:54:57.478Z,100745.97
2022-08-05T11:57:29.229Z,100740.56
2022-08-05T11:59:58.100Z,100730.25
2022-08-05T12:02:46.554Z,100725.59
2022-08-05T12:05:47.512Z,100729.00
2022-08-05T12:08:53.561Z,100729.47
2022-08-05T12:11:40.446Z,100713.97
2022-08-05T12:14:10.242Z,100715.13
2022-08-05T12:16:39.640Z,100719.34
2022-08-05T12:20:25.582Z,100722.63
2022-08-05T12:22:30.017Z,100712.06
2022-08-05T12:24:58.975Z,100715.22
2022-08-05T12:27:27.119Z,100704.25
2022-08-05T12:30:05.128Z,100715.06
2022-08-05T12:32:33.178Z,100710.75
2022-08-05T12:35:00.188Z,100705.53
2022-08-05T12:37:31.751Z,100714.22
2022-08-05T12:40:03.738Z,100713.28
2022-08-05T12:42:37.587Z,100700.09
2022-08-05T12:45:08.873Z,100682.25
2022-08-05T12:47:37.483Z,100679.53
2022-08-05T12:50:15.958Z,100679.06
2022-08-05T12:53:09.582Z,100677.84
2022-08-05T12:56:35.395Z,100679.41
2022-08-05T12:59:20.745Z,100673.91
2022-08-05T13:02:16.664Z,100667.84
2022-08-05T13:05:19.514Z,100662.50
2022-08-05T13:08:21.528Z,100655.03
2022-08-05T13:12:01.741Z,100658.31
2022-08-05T13:14:19.812Z,100645.22
2022-08-05T13:17:08.518Z,100645.72
2022-08-05T13:20:06.974Z,100642.53
2022-08-05T13:22:39.713Z,100638.00
2022-08-05T13:25:19.322Z,100628.28
2022-08-05T13:27:50.382Z,100626.34
2022-08-05T13:30:39.077Z,100627.06
2022-08-05T13:34:21.355Z,100632.94
2022-08-05T13:36:09.231Z,100624.31
2022-08-05T13:38:41.943Z,100625.03
2022-08-05T13:41:10.186Z,100618.94
2022-08-05T13:43:44.529Z,100614.00
2022-08-05T13:46:51.042Z,100613.44
2022-08-05T13:49:09.808Z,100608.25
2022-08-05T13:51:41.252Z,100605.03
2022-08-05T13:54:12.003Z,100608.91
2022-08-05T13:56:50.875Z,100604.44
2022-08-05T13:59:24.207Z,100602.91
2022-08-05T14:02:19.749Z,100606.16
2022-08-05T14:05:29.742Z,100602.88
2022-08-05T14:08:42.552Z,100600.81
2022-08-05T14:12:04.267Z,100593.69
2022-08-05T14:14:49.898Z,100594.81
2022-08-05T14:17:18.394Z,100597.09
2022-08-05T14:19:55.187Z,100590.72
2022-08-05T14:22:23.917Z,100590.53
2022-08-05T14:24:57.394Z,100589.03
2022-08-05T14:27:24.234Z,100588.28
2022-08-05T14:29:55.281Z,100588.16
2022-08-05T14:32:27.196Z,100584.69
2022-08-05T14:34:56.889Z,100583.25
2022-08-05T14:37:45.582Z,100581.25
2022-08-05T14:40:13.960Z,100574.44
2022-08-05T14:42:41.418Z,100570.25
2022-08-05T14:45:10.390Z,100566.13
2022-08-05T14:48:02.993Z,100560.59
2022-08-05T14:50:25.325Z,100557.50
2022-08-05T14:52:56.916Z,100557.81
2022-08-05T14:55:52.094Z,100561.13
2022-08-05T14:58:33.161Z,100558.09
2022-08-05T15:01:00.496Z,100562.50
2022-08-05T15:03:48.615Z,100555.34
2022-08-05T15:06:49.867Z,100552.72
2022-08-05T15:09:54.095Z,100545.72
2022-08-05T15:12:51.613Z,100535.41
2022-08-05T15:15:54.589Z,100539.34
2022-08-05T15:18:08.808Z,100530.69
2022-08-05T15:20:35.919Z,100545.53
2022-08-05T15:23:04.018Z,100530.34
2022-08-05T15:25:50.878Z,100530.88
2022-08-05T15:28:38.602Z,100530.56
2022-08-05T15:31:23.559Z,100532.91
2022-08-05T15:34:18.458Z,100523.38
2022-08-05T15:36:48.133Z,100526.84
2022-08-05T15:41:01.279Z,100530.84
2022-08-05T15:42:01.890Z,100534.03
2022-08-05T15:44:48.588Z,100534.59
2022-08-05T15:47:16.816Z,100525.38
2022-08-05T15:49:58.771Z,100533.41
2022-08-05T15:52:51.781Z,100534.88
2022-08-05T15:55:16.094Z,100543.44
2022-08-05T15:57:43.326Z,100539.28
2022-08-05T16:00:12.459Z,100540.50
2022-08-05T16:02:56.673Z,100539.34
2022-08-05T16:05:59.669Z,100538.38
2022-08-05T16:09:00.641Z,100541.13
2022-08-05T16:12:00.392Z,100548.44
2022-08-05T16:14:27.161Z,100539.00
2022-08-05T16:17:14.643Z,100543.69
2022-08-05T16:20:04.391Z,100542.84
2022-08-05T16:22:38.018Z,100547.06
2022-08-05T16:25:09.835Z,100547.44
2022-08-05T16:28:00.252Z,100542.84
2022-08-05T16:30:28.788Z,100544.47
2022-08-05T16:32:56.472Z,100549.03
2022-08-05T16:35:28.018Z,100551.47
2022-08-05T16:38:15.337Z,100542.78
2022-08-05T16:40:52.146Z,100548.97
2022-08-05T16:43:23.895Z,100550.03
2022-08-05T16:46:06.331Z,100551.53
2022-08-05T16:48:37.871Z,100547.88
2022-08-05T16:51:30.845Z,100543.78
2022-08-05T16:54:28.997Z,100549.09
2022-08-05T16:57:53.361Z,100545.84
2022-08-05T17:00:54.710Z,100537.25
2022-08-05T17:03:25.043Z,100537.03
2022-08-05T17:05:59.346Z,100539.19
2022-08-05T17:08:52.676Z,100542.69
2022-08-05T17:11:59.640Z,100542.28
2022-08-05T17:14:40.278Z,100533.69
2022-08-05T17:17:29.576Z,100531.53
2022-08-05T17:20:23.214Z,100534.34
2022-08-05T17:22:55.663Z,100540.97
2022-08-05T17:25:33.922Z,100542.25
2022-08-05T17:28:28.837Z,100552.13
2022-08-05T17:31:41.363Z,100546.25
2022-08-05T17:34:32.054Z,100550.03
2022-08-05T17:37:00.090Z,100543.00
2022-08-05T17:39:34.449Z,100546.44
2022-08-05T17:42:18.935Z,100543.75
2022-08-05T17:45:17.939Z,100549.78
2022-08-05T17:48:22.730Z,100549.84
2022-08-05T17:51:09.098Z,100542.09
2022-08-05T17:53:36.240Z,100539.38
2022-08-05T17:56:04.648Z,100544.56
2022-08-05T17:58:32.453Z,100546.47
2022-08-05T18:00:59.704Z,100549.72
2022-08-05T18:03:59.498Z,100544.69
2022-08-05T18:06:15.513Z,100544.13
2022-08-05T18:09:03.609Z,100538.91
2022-08-05T18:11:44.153Z,100559.19
2022-08-05T18:14:13.404Z,100558.13
2022-08-05T18:17:00.729Z,100553.31
2022-08-05T18:20:01.735Z,100495.50
2022-08-05T18:23:11.926Z,100558.44
2022-08-05T18:26:00.705Z,100565.91
2022-08-05T18:28:29.142Z,100554.88
2022-08-05T18:30:58.052Z,100560.47
2022-08-05T18:33:24.895Z,100558.69
2022-08-05T18:36:15.326Z,100559.44
2022-08-05T18:38:56.369Z,100570.66
2022-08-05T18:41:57.396Z,100578.97
2022-08-05T18:44:11.387Z,100587.00
2022-08-05T18:46:41.080Z,100582.47
2022-08-05T18:49:30.678Z,100589.69
2022-08-05T18:52:36.832Z,100585.94
2022-08-05T18:55:17.168Z,100582.56
2022-08-05T18:57:53.506Z,100581.66
2022-08-05T19:00:27.051Z,100584.28
2022-08-05T19:02:56.601Z,100587.28
2022-08-05T19:06:05.683Z,100587.03
2022-08-05T19:08:31.790Z,100602.66
2022-08-05T19:11:37.054Z,100616.16
2022-08-05T19:15:00.734Z,100621.41
2022-08-05T19:18:09.830Z,100623.75
2022-08-05T19:21:00.814Z,100627.38
2022-08-05T19:24:06.840Z,100627.53
2022-08-05T19:27:09.804Z,100623.47
2022-08-05T19:30:04.785Z,100623.13
2022-08-05T19:33:08.851Z,100628.63
2022-08-05T19:35:57.586Z,100635.53
2022-08-05T19:38:26.678Z,100639.16
2022-08-05T19:40:53.768Z,100640.38
2022-08-05T19:44:04.608Z,100649.88
2022-08-05T19:46:16.934Z,100657.84
2022-08-05T19:48:55.110Z,100671.38
2022-08-05T19:52:09.326Z,100686.38
2022-08-05T19:54:15.568Z,100680.59
2022-08-05T19:56:49.814Z,100687.94
2022-08-05T19:59:53.731Z,100691.56
2022-08-05T20:02:39.799Z,100697.09
2022-08-05T20:05:24.484Z,100706.94
2022-08-05T20:08:14.922Z,100703.25
2022-08-05T20:11:17.930Z,100704.69
2022-08-05T20:14:26.791Z,100704.56
2022-08-05T20:17:27.807Z,100700.88
2022-08-05T20:20:32.809Z,100715.16
2022-08-05T20:23:40.079Z,100721.41
2022-08-05T20:26:17.867Z,100731.34
2022-08-05T20:28:49.771Z,100727.22
2022-08-05T20:31:17.350Z,100729.38
2022-08-05T20:33:48.357Z,100725.75
2022-08-05T20:36:18.103Z,100728.78
2022-08-05T20:38:54.554Z,100739.25
2022-08-05T20:41:27.560Z,100732.28
2022-08-05T20:44:19.300Z,100740.09
2022-08-05T20:46:58.166Z,100739.38
2022-08-05T20:49:25.958Z,100730.03
2022-08-05T20:51:54.085Z,100731.16
2022-08-05T20:54:21.713Z,100729.47
2022-08-05T20:56:48.848Z,100729.88
2022-08-05T20:59:26.589Z,100732.94
2022-08-05T21:01:57.247Z,100724.53
2022-08-05T21:04:44.886Z,100722.28
2022-08-05T21:07:51.952Z,100722.94
2022-08-05T21:10:58.525Z,100724.34
2022-08-05T21:13:55.904Z,100717.56
2022-08-05T21:16:43.810Z,100714.72
2022-08-05T21:19:24.392Z,100714.31
2022-08-05T21:21:55.199Z,100710.22
2022-08-05T21:24:22.028Z,100718.97
2022-08-05T21:26:56.115Z,100708.53
2022-08-05T21:29:48.516Z,100717.88
2022-08-05T21:32:51.861Z,100708.00
2022-08-05T21:35:55.809Z,100710.63
2022-08-05T21:38:19.860Z,100713.47
2022-08-05T21:40:46.891Z,100708.06
2022-08-05T21:43:23.998Z,100710.81
2022-08-05T21:45:56.964Z,100714.38
2022-08-05T21:48:27.265Z,100714.59
2022-08-05T21:50:54.644Z,100719.47
2022-08-05T21:53:27.268Z,100714.66
2022-08-05T21:56:04.794Z,100714.66
2022-08-05T21:58:59.897Z,100710.91
2022-08-05T22:01:48.313Z,100712.78
2022-08-05T22:04:16.999Z,100720.81
2022-08-05T22:06:43.956Z,100716.13
2022-08-05T22:09:46.163Z,100720.81
2022-08-05T22:12:50.677Z,100726.94
2022-08-05T22:16:02.600Z,100728.13
2022-08-05T22:18:58.663Z,100730.09
2022-08-05T22:21:25.804Z,100739.38
2022-08-05T22:24:13.360Z,100737.50
2022-08-05T22:27:17.736Z,100748.41
2022-08-05T22:29:44.563Z,100740.47
2022-08-05T22:32:12.707Z,100746.50
2022-08-05T22:34:44.451Z,100750.50
2022-08-05T22:37:12.675Z,100748.78
2022-08-05T22:39:39.508Z,100764.44
2022-08-05T22:42:12.428Z,100768.94
2022-08-05T22:44:47.076Z,100780.28
2022-08-05T22:47:29.148Z,100776.63
2022-08-05T22:50:26.623Z,100770.44
2022-08-05T22:53:10.284Z,100782.84
2022-08-05T22:55:57.062Z,100775.84
2022-08-05T22:58:28.244Z,100777.78
2022-08-05T23:00:56.960Z,100792.59
2022-08-05T23:03:58.980Z,100788.53
2022-08-05T23:06:30.937Z,100793.56
2022-08-05T23:09:56.979Z,100798.38
2022-08-05T23:12:54.557Z,100796.81
2022-08-05T23:15:56.040Z,100795.19
2022-08-05T23:18:36.353Z,100782.25
2022-08-05T23:21:05.551Z,100784.41
2022-08-05T23:23:37.059Z,100783.38
2022-08-05T23:26:07.600Z,100775.91
2022-08-05T23:28:34.500Z,100782.59
2022-08-05T23:31:16.281Z,100784.56
2022-08-05T23:34:06.167Z,100795.69
2022-08-05T23:36:39.720Z,100803.91
2022-08-05T23:39:32.560Z,100798.16
2022-08-05T23:42:29.908Z,100798.44
2022-08-05T23:44:57.133Z,100796.34
2022-08-05T23:47:24.921Z,100795.66
2022-08-05T23:49:55.566Z,100788.41
2022-08-05T23:52:26.651Z,100795.25
2022-08-05T23:54:58.244Z,100793.88
2022-08-05T23:57:28.239Z,100785.44
